sensor_id;sensor_type;location;lat;lon;timestamp;P1;durP1;ratioP1;P2;durP2;ratioP2
70953;SDS011;58618;47.490;8.736;2024-01-11T00:00:03;72.73;;;17.17;;
70953;SDS011;58618;47.490;8.736;2024-01-11T00:02:51;71.00;;;19.35;;
70953;SDS011;58618;47.490;8.736;2024-01-11T00:05:38;57.70;;;16.25;;
70953;SDS011;58618;47.490;8.736;2024-01-11T00:08:27;64.47;;;17.58;;
70953;SDS011;58618;47.490;8.736;2024-01-11T00:11:14;63.40;;;16.88;;
70953;SDS011;58618;47.490;8.736;2024-01-11T00:14:02;63.07;;;17.67;;
70953;SDS011;58618;47.490;8.736;2024-01-11T00:16:50;70.10;;;18.90;;
70953;SDS011;58618;47.490;8.736;2024-01-11T00:19:38;63.35;;;17.98;;
70953;SDS011;58618;47.490;8.736;2024-01-11T00:22:25;60.22;;;16.98;;
70953;SDS011;58618;47.490;8.736;2024-01-11T00:25:13;60.75;;;16.23;;
70953;SDS011;58618;47.490;8.736;2024-01-11T00:28:01;68.03;;;17.90;;
70953;SDS011;58618;47.490;8.736;2024-01-11T00:30:48;53.22;;;15.27;;
70953;SDS011;58618;47.490;8.736;2024-01-11T00:33:39;51.00;;;15.82;;
70953;SDS011;58618;47.490;8.736;2024-01-11T00:36:26;55.97;;;14.77;;
70953;SDS011;58618;47.490;8.736;2024-01-11T00:39:14;50.78;;;14.30;;
70953;SDS011;58618;47.490;8.736;2024-01-11T00:42:02;55.30;;;17.17;;
70953;SDS011;58618;47.490;8.736;2024-01-11T00:44:49;54.50;;;14.25;;
70953;SDS011;58618;47.490;8.736;2024-01-11T00:47:36;52.35;;;15.30;;
70953;SDS011;58618;47.490;8.736;2024-01-11T00:50:25;55.85;;;15.95;;
70953;SDS011;58618;47.490;8.736;2024-01-11T00:53:12;62.55;;;16.85;;
70953;SDS011;58618;47.490;8.736;2024-01-11T00:56:00;52.60;;;16.43;;
70953;SDS011;58618;47.490;8.736;2024-01-11T00:58:47;54.45;;;16.17;;
70953;SDS011;58618;47.490;8.736;2024-01-11T01:01:35;57.05;;;16.73;;
70953;SDS011;58618;47.490;8.736;2024-01-11T01:04:22;57.80;;;15.98;;
70953;SDS011;58618;47.490;8.736;2024-01-11T01:07:11;50.97;;;15.73;;
70953;SDS011;58618;47.490;8.736;2024-01-11T01:09:59;59.87;;;17.03;;
70953;SDS011;58618;47.490;8.736;2024-01-11T01:12:46;51.75;;;15.63;;
70953;SDS011;58618;47.490;8.736;2024-01-11T01:15:33;49.15;;;15.73;;
70953;SDS011;58618;47.490;8.736;2024-01-11T01:18:21;52.85;;;16.00;;
70953;SDS011;58618;47.490;8.736;2024-01-11T01:21:08;58.97;;;17.45;;
70953;SDS011;58618;47.490;8.736;2024-01-11T01:23:57;57.60;;;17.77;;
70953;SDS011;58618;47.490;8.736;2024-01-11T01:26:44;62.97;;;17.92;;
70953;SDS011;58618;47.490;8.736;2024-01-11T01:29:32;63.58;;;18.70;;
70953;SDS011;58618;47.490;8.736;2024-01-11T01:32:19;56.00;;;18.30;;
70953;SDS011;58618;47.490;8.736;2024-01-11T01:35:07;55.83;;;18.73;;
70953;SDS011;58618;47.490;8.736;2024-01-11T01:37:54;53.87;;;17.47;;
70953;SDS011;58618;47.490;8.736;2024-01-11T01:40:43;50.25;;;16.38;;
70953;SDS011;58618;47.490;8.736;2024-01-11T01:43:31;53.00;;;18.35;;
70953;SDS011;58618;47.490;8.736;2024-01-11T01:46:19;51.67;;;17.70;;
70953;SDS011;58618;47.490;8.736;2024-01-11T01:49:09;54.50;;;17.17;;
70953;SDS011;58618;47.490;8.736;2024-01-11T01:51:58;53.87;;;18.00;;
70953;SDS011;58618;47.490;8.736;2024-01-11T01:54:46;59.78;;;18.35;;
70953;SDS011;58618;47.490;8.736;2024-01-11T01:57:37;57.15;;;17.63;;
70953;SDS011;58618;47.490;8.736;2024-01-11T02:00:27;49.40;;;16.55;;
70953;SDS011;58618;47.490;8.736;2024-01-11T02:03:14;52.50;;;16.02;;
70953;SDS011;58618;47.490;8.736;2024-01-11T02:06:03;61.63;;;17.67;;
70953;SDS011;58618;47.490;8.736;2024-01-11T02:08:52;54.08;;;17.30;;
70953;SDS011;58618;47.490;8.736;2024-01-11T02:11:41;60.20;;;19.17;;
70953;SDS011;58618;47.490;8.736;2024-01-11T02:14:30;56.15;;;19.70;;
70953;SDS011;58618;47.490;8.736;2024-01-11T02:17:18;63.13;;;18.38;;
70953;SDS011;58618;47.490;8.736;2024-01-11T02:20:05;55.87;;;15.53;;
70953;SDS011;58618;47.490;8.736;2024-01-11T02:22:55;64.40;;;17.35;;
70953;SDS011;58618;47.490;8.736;2024-01-11T02:25:46;54.38;;;17.38;;
70953;SDS011;58618;47.490;8.736;2024-01-11T02:28:34;51.25;;;16.27;;
70953;SDS011;58618;47.490;8.736;2024-01-11T02:31:21;58.28;;;16.88;;
70953;SDS011;58618;47.490;8.736;2024-01-11T02:34:09;61.63;;;17.50;;
70953;SDS011;58618;47.490;8.736;2024-01-11T02:36:57;54.08;;;16.55;;
70953;SDS011;58618;47.490;8.736;2024-01-11T02:39:44;59.53;;;17.52;;
70953;SDS011;58618;47.490;8.736;2024-01-11T02:42:33;52.15;;;16.92;;
70953;SDS011;58618;47.490;8.736;2024-01-11T02:45:20;56.13;;;17.27;;
70953;SDS011;58618;47.490;8.736;2024-01-11T02:48:08;57.37;;;16.90;;
70953;SDS011;58618;47.490;8.736;2024-01-11T02:50:55;57.25;;;17.08;;
70953;SDS011;58618;47.490;8.736;2024-01-11T02:53:43;61.60;;;17.52;;
70953;SDS011;58618;47.490;8.736;2024-01-11T02:56:32;61.03;;;16.90;;
70953;SDS011;58618;47.490;8.736;2024-01-11T02:59:21;69.40;;;18.88;;
70953;SDS011;58618;47.490;8.736;2024-01-11T03:02:09;61.40;;;16.93;;
70953;SDS011;58618;47.490;8.736;2024-01-11T03:04:59;58.28;;;17.15;;
70953;SDS011;58618;47.490;8.736;2024-01-11T03:07:47;54.95;;;16.10;;
70953;SDS011;58618;47.490;8.736;2024-01-11T03:10:36;55.25;;;15.85;;
70953;SDS011;58618;47.490;8.736;2024-01-11T03:13:24;58.67;;;17.00;;
70953;SDS011;58618;47.490;8.736;2024-01-11T03:16:13;62.27;;;17.73;;
70953;SDS011;58618;47.490;8.736;2024-01-11T03:19:00;55.45;;;16.00;;
70953;SDS011;58618;47.490;8.736;2024-01-11T03:21:48;57.50;;;16.25;;
70953;SDS011;58618;47.490;8.736;2024-01-11T03:24:37;58.00;;;16.77;;
70953;SDS011;58618;47.490;8.736;2024-01-11T03:27:25;55.92;;;17.15;;
70953;SDS011;58618;47.490;8.736;2024-01-11T03:30:12;52.43;;;16.43;;
70953;SDS011;58618;47.490;8.736;2024-01-11T03:33:03;55.58;;;17.42;;
70953;SDS011;58618;47.490;8.736;2024-01-11T03:35:51;53.92;;;15.95;;
70953;SDS011;58618;47.490;8.736;2024-01-11T03:38:38;54.25;;;17.33;;
70953;SDS011;58618;47.490;8.736;2024-01-11T03:41:26;54.42;;;15.93;;
70953;SDS011;58618;47.490;8.736;2024-01-11T03:44:13;46.37;;;14.67;;
70953;SDS011;58618;47.490;8.736;2024-01-11T03:47:00;52.85;;;16.17;;
70953;SDS011;58618;47.490;8.736;2024-01-11T03:49:49;50.42;;;16.38;;
70953;SDS011;58618;47.490;8.736;2024-01-11T03:52:37;54.25;;;17.10;;
70953;SDS011;58618;47.490;8.736;2024-01-11T03:55:24;54.70;;;15.93;;
70953;SDS011;58618;47.490;8.736;2024-01-11T03:58:11;50.37;;;16.60;;
70953;SDS011;58618;47.490;8.736;2024-01-11T04:01:00;51.10;;;15.90;;
70953;SDS011;58618;47.490;8.736;2024-01-11T04:03:47;48.75;;;16.23;;
70953;SDS011;58618;47.490;8.736;2024-01-11T04:06:36;47.83;;;15.52;;
70953;SDS011;58618;47.490;8.736;2024-01-11T04:09:23;50.40;;;16.10;;
70953;SDS011;58618;47.490;8.736;2024-01-11T04:12:11;44.47;;;15.37;;
70953;SDS011;58618;47.490;8.736;2024-01-11T04:14:58;38.25;;;14.07;;
70953;SDS011;58618;47.490;8.736;2024-01-11T04:17:45;51.28;;;15.90;;
70953;SDS011;58618;47.490;8.736;2024-01-11T04:20:33;49.90;;;15.32;;
70953;SDS011;58618;47.490;8.736;2024-01-11T04:23:22;52.42;;;15.68;;
70953;SDS011;58618;47.490;8.736;2024-01-11T04:26:10;47.83;;;16.07;;
70953;SDS011;58618;47.490;8.736;2024-01-11T04:28:57;49.33;;;16.08;;
70953;SDS011;58618;47.490;8.736;2024-01-11T04:31:45;51.55;;;16.13;;
70953;SDS011;58618;47.490;8.736;2024-01-11T04:34:33;52.80;;;15.90;;
70953;SDS011;58618;47.490;8.736;2024-01-11T04:37:20;48.95;;;15.02;;
70953;SDS011;58618;47.490;8.736;2024-01-11T04:40:09;49.67;;;15.00;;
70953;SDS011;58618;47.490;8.736;2024-01-11T04:42:57;47.95;;;16.02;;
70953;SDS011;58618;47.490;8.736;2024-01-11T04:45:44;46.83;;;15.48;;
70953;SDS011;58618;47.490;8.736;2024-01-11T04:48:32;50.97;;;15.75;;
70953;SDS011;58618;47.490;8.736;2024-01-11T04:51:19;59.90;;;17.30;;
70953;SDS011;58618;47.490;8.736;2024-01-11T04:54:06;57.93;;;17.57;;
70953;SDS011;58618;47.490;8.736;2024-01-11T04:56:55;52.00;;;16.80;;
70953;SDS011;58618;47.490;8.736;2024-01-11T04:59:43;44.45;;;15.32;;
70953;SDS011;58618;47.490;8.736;2024-01-11T05:02:31;54.88;;;18.23;;
70953;SDS011;58618;47.490;8.736;2024-01-11T05:05:18;58.33;;;17.75;;
70953;SDS011;58618;47.490;8.736;2024-01-11T05:08:05;62.63;;;17.63;;
70953;SDS011;58618;47.490;8.736;2024-01-11T05:10:53;52.35;;;16.75;;
70953;SDS011;58618;47.490;8.736;2024-01-11T05:13:42;52.97;;;17.90;;
70953;SDS011;58618;47.490;8.736;2024-01-11T05:16:31;51.28;;;16.05;;
70953;SDS011;58618;47.490;8.736;2024-01-11T05:19:18;51.45;;;16.52;;
70953;SDS011;58618;47.490;8.736;2024-01-11T05:22:06;55.03;;;18.07;;
70953;SDS011;58618;47.490;8.736;2024-01-11T05:24:53;51.85;;;16.95;;
70953;SDS011;58618;47.490;8.736;2024-01-11T05:27:40;60.13;;;17.45;;
70953;SDS011;58618;47.490;8.736;2024-01-11T05:30:29;57.92;;;19.05;;
70953;SDS011;58618;47.490;8.736;2024-01-11T05:33:17;47.97;;;16.50;;
70953;SDS011;58618;47.490;8.736;2024-01-11T05:36:05;50.03;;;16.63;;
70953;SDS011;58618;47.490;8.736;2024-01-11T05:38:53;55.88;;;19.17;;
70953;SDS011;58618;47.490;8.736;2024-01-11T05:41:43;49.10;;;17.15;;
70953;SDS011;58618;47.490;8.736;2024-01-11T05:44:30;47.92;;;15.57;;
70953;SDS011;58618;47.490;8.736;2024-01-11T05:47:19;55.20;;;16.60;;
70953;SDS011;58618;47.490;8.736;2024-01-11T05:50:07;50.67;;;15.93;;
70953;SDS011;58618;47.490;8.736;2024-01-11T05:52:55;53.28;;;17.70;;
70953;SDS011;58618;47.490;8.736;2024-01-11T05:55:42;53.75;;;16.02;;
70953;SDS011;58618;47.490;8.736;2024-01-11T05:58:30;54.65;;;16.33;;
70953;SDS011;58618;47.490;8.736;2024-01-11T06:01:17;59.38;;;17.00;;
70953;SDS011;58618;47.490;8.736;2024-01-11T06:04:06;53.50;;;16.93;;
70953;SDS011;58618;47.490;8.736;2024-01-11T06:06:53;52.90;;;18.15;;
70953;SDS011;58618;47.490;8.736;2024-01-11T06:09:40;46.20;;;15.93;;
70953;SDS011;58618;47.490;8.736;2024-01-11T06:12:28;47.92;;;16.65;;
70953;SDS011;58618;47.490;8.736;2024-01-11T06:15:15;54.05;;;16.25;;
70953;SDS011;58618;47.490;8.736;2024-01-11T06:18:03;53.93;;;17.33;;
70953;SDS011;58618;47.490;8.736;2024-01-11T06:20:53;53.90;;;17.42;;
70953;SDS011;58618;47.490;8.736;2024-01-11T06:23:40;61.92;;;19.30;;
70953;SDS011;58618;47.490;8.736;2024-01-11T06:26:27;52.97;;;16.70;;
70953;SDS011;58618;47.490;8.736;2024-01-11T06:29:15;67.07;;;20.63;;
70953;SDS011;58618;47.490;8.736;2024-01-11T06:32:02;61.67;;;19.97;;
70953;SDS011;58618;47.490;8.736;2024-01-11T06:34:50;60.22;;;18.50;;
70953;SDS011;58618;47.490;8.736;2024-01-11T06:37:40;55.38;;;17.95;;
70953;SDS011;58618;47.490;8.736;2024-01-11T06:40:27;54.97;;;18.00;;
70953;SDS011;58618;47.490;8.736;2024-01-11T06:43:14;56.83;;;19.58;;
70953;SDS011;58618;47.490;8.736;2024-01-11T06:46:02;53.17;;;18.30;;
70953;SDS011;58618;47.490;8.736;2024-01-11T06:48:50;48.90;;;16.50;;
70953;SDS011;58618;47.490;8.736;2024-01-11T06:51:38;48.95;;;15.02;;
70953;SDS011;58618;47.490;8.736;2024-01-11T06:54:27;42.20;;;14.10;;
70953;SDS011;58618;47.490;8.736;2024-01-11T06:57:16;38.95;;;13.60;;
70953;SDS011;58618;47.490;8.736;2024-01-11T07:00:03;40.13;;;12.53;;
70953;SDS011;58618;47.490;8.736;2024-01-11T07:02:53;38.00;;;12.65;;
70953;SDS011;58618;47.490;8.736;2024-01-11T07:05:40;48.28;;;15.90;;
70953;SDS011;58618;47.490;8.736;2024-01-11T07:08:28;41.70;;;13.55;;
70953;SDS011;58618;47.490;8.736;2024-01-11T07:11:16;40.60;;;13.48;;
70953;SDS011;58618;47.490;8.736;2024-01-11T07:14:04;44.47;;;14.83;;
70953;SDS011;58618;47.490;8.736;2024-01-11T07:16:51;45.55;;;15.68;;
70953;SDS011;58618;47.490;8.736;2024-01-11T07:19:39;42.47;;;14.13;;
70953;SDS011;58618;47.490;8.736;2024-01-11T07:22:26;48.53;;;16.00;;
70953;SDS011;58618;47.490;8.736;2024-01-11T07:25:13;44.40;;;14.80;;
70953;SDS011;58618;47.490;8.736;2024-01-11T07:28:02;45.90;;;14.73;;
70953;SDS011;58618;47.490;8.736;2024-01-11T07:30:50;44.00;;;14.68;;
70953;SDS011;58618;47.490;8.736;2024-01-11T07:33:37;42.20;;;14.07;;
70953;SDS011;58618;47.490;8.736;2024-01-11T07:36:25;36.92;;;13.95;;
70953;SDS011;58618;47.490;8.736;2024-01-11T07:39:12;41.20;;;14.10;;
70953;SDS011;58618;47.490;8.736;2024-01-11T07:41:59;44.13;;;13.40;;
70953;SDS011;58618;47.490;8.736;2024-01-11T07:44:48;47.05;;;14.30;;
70953;SDS011;58618;47.490;8.736;2024-01-11T07:47:35;49.13;;;14.52;;
70953;SDS011;58618;47.490;8.736;2024-01-11T07:50:23;41.13;;;13.95;;
70953;SDS011;58618;47.490;8.736;2024-01-11T07:53:11;44.15;;;14.13;;
70953;SDS011;58618;47.490;8.736;2024-01-11T07:55:58;46.93;;;15.50;;
70953;SDS011;58618;47.490;8.736;2024-01-11T07:58:46;50.25;;;15.82;;
70953;SDS011;58618;47.490;8.736;2024-01-11T08:01:34;50.38;;;16.83;;
70953;SDS011;58618;47.490;8.736;2024-01-11T08:04:22;52.10;;;16.65;;
70953;SDS011;58618;47.490;8.736;2024-01-11T08:07:09;46.35;;;16.23;;
70953;SDS011;58618;47.490;8.736;2024-01-11T08:09:56;46.47;;;15.60;;
70953;SDS011;58618;47.490;8.736;2024-01-11T08:12:44;59.22;;;18.13;;
70953;SDS011;58618;47.490;8.736;2024-01-11T08:15:31;58.83;;;19.10;;
70953;SDS011;58618;47.490;8.736;2024-01-11T08:18:20;50.95;;;16.58;;
70953;SDS011;58618;47.490;8.736;2024-01-11T08:21:07;51.35;;;16.30;;
70953;SDS011;58618;47.490;8.736;2024-01-11T08:23:55;50.33;;;14.60;;
70953;SDS011;58618;47.490;8.736;2024-01-11T08:26:43;53.80;;;14.68;;
70953;SDS011;58618;47.490;8.736;2024-01-11T08:29:30;48.90;;;16.40;;
70953;SDS011;58618;47.490;8.736;2024-01-11T08:32:19;50.22;;;16.63;;
70953;SDS011;58618;47.490;8.736;2024-01-11T08:35:08;58.05;;;18.30;;
70953;SDS011;58618;47.490;8.736;2024-01-11T08:37:56;55.63;;;17.63;;
70953;SDS011;58618;47.490;8.736;2024-01-11T08:40:43;54.92;;;17.52;;
70953;SDS011;58618;47.490;8.736;2024-01-11T08:43:31;51.15;;;17.08;;
70953;SDS011;58618;47.490;8.736;2024-01-11T08:46:23;53.65;;;17.13;;
70953;SDS011;58618;47.490;8.736;2024-01-11T08:49:11;54.40;;;16.85;;
70953;SDS011;58618;47.490;8.736;2024-01-11T08:52:00;47.73;;;15.50;;
70953;SDS011;58618;47.490;8.736;2024-01-11T08:54:48;50.15;;;16.33;;
70953;SDS011;58618;47.490;8.736;2024-01-11T08:57:36;47.05;;;16.55;;
70953;SDS011;58618;47.490;8.736;2024-01-11T09:00:23;42.58;;;15.88;;
70953;SDS011;58618;47.490;8.736;2024-01-11T09:03:10;46.90;;;16.98;;
70953;SDS011;58618;47.490;8.736;2024-01-11T09:05:59;45.97;;;15.77;;
70953;SDS011;58618;47.490;8.736;2024-01-11T09:08:48;50.78;;;15.80;;
70953;SDS011;58618;47.490;8.736;2024-01-11T09:11:36;48.22;;;15.98;;
70953;SDS011;58618;47.490;8.736;2024-01-11T09:14:23;50.55;;;15.60;;
70953;SDS011;58618;47.490;8.736;2024-01-11T09:17:10;44.20;;;15.32;;
70953;SDS011;58618;47.490;8.736;2024-01-11T09:19:58;43.37;;;14.30;;
70953;SDS011;58618;47.490;8.736;2024-01-11T09:22:45;44.88;;;14.25;;
70953;SDS011;58618;47.490;8.736;2024-01-11T09:25:34;39.45;;;14.15;;
70953;SDS011;58618;47.490;8.736;2024-01-11T09:28:21;38.83;;;13.82;;
70953;SDS011;58618;47.490;8.736;2024-01-11T09:31:09;37.72;;;14.45;;
70953;SDS011;58618;47.490;8.736;2024-01-11T09:33:56;39.67;;;13.83;;
70953;SDS011;58618;47.490;8.736;2024-01-11T09:36:44;36.10;;;14.43;;
70953;SDS011;58618;47.490;8.736;2024-01-11T09:39:31;49.40;;;16.58;;
70953;SDS011;58618;47.490;8.736;2024-01-11T09:42:20;40.53;;;15.63;;
70953;SDS011;58618;47.490;8.736;2024-01-11T09:45:09;43.30;;;15.65;;
70953;SDS011;58618;47.490;8.736;2024-01-11T09:47:59;43.47;;;15.33;;
70953;SDS011;58618;47.490;8.736;2024-01-11T09:50:48;45.30;;;15.30;;
70953;SDS011;58618;47.490;8.736;2024-01-11T09:53:37;44.95;;;16.33;;
70953;SDS011;58618;47.490;8.736;2024-01-11T09:56:25;41.42;;;14.98;;
70953;SDS011;58618;47.490;8.736;2024-01-11T09:59:15;44.88;;;15.80;;
70953;SDS011;58618;47.490;8.736;2024-01-11T10:02:08;40.67;;;15.73;;
70953;SDS011;58618;47.490;8.736;2024-01-11T10:04:58;37.25;;;14.52;;
70953;SDS011;58618;47.490;8.736;2024-01-11T10:07:46;43.80;;;16.33;;
70953;SDS011;58618;47.490;8.736;2024-01-11T10:10:33;42.78;;;15.20;;
70953;SDS011;58618;47.490;8.736;2024-01-11T10:13:25;45.78;;;15.25;;
70953;SDS011;58618;47.490;8.736;2024-01-11T10:16:15;44.83;;;16.70;;
70953;SDS011;58618;47.490;8.736;2024-01-11T10:19:03;43.33;;;15.30;;
70953;SDS011;58618;47.490;8.736;2024-01-11T10:21:50;35.42;;;12.82;;
70953;SDS011;58618;47.490;8.736;2024-01-11T10:24:38;38.53;;;13.20;;
70953;SDS011;58618;47.490;8.736;2024-01-11T10:27:26;37.85;;;13.68;;
70953;SDS011;58618;47.490;8.736;2024-01-11T10:30:14;39.30;;;13.90;;
70953;SDS011;58618;47.490;8.736;2024-01-11T10:33:04;43.58;;;15.07;;
70953;SDS011;58618;47.490;8.736;2024-01-11T10:35:54;38.80;;;12.75;;
70953;SDS011;58618;47.490;8.736;2024-01-11T10:38:41;43.78;;;14.80;;
70953;SDS011;58618;47.490;8.736;2024-01-11T10:41:32;43.63;;;14.05;;
70953;SDS011;58618;47.490;8.736;2024-01-11T10:44:25;46.23;;;14.63;;
70953;SDS011;58618;47.490;8.736;2024-01-11T10:47:16;40.70;;;15.25;;
70953;SDS011;58618;47.490;8.736;2024-01-11T10:50:09;42.92;;;14.25;;
70953;SDS011;58618;47.490;8.736;2024-01-11T10:53:02;40.13;;;14.75;;
70953;SDS011;58618;47.490;8.736;2024-01-11T10:55:54;50.78;;;16.92;;
70953;SDS011;58618;47.490;8.736;2024-01-11T10:58:44;50.07;;;17.20;;
70953;SDS011;58618;47.490;8.736;2024-01-11T11:01:32;66.38;;;19.35;;
70953;SDS011;58618;47.490;8.736;2024-01-11T11:04:20;63.60;;;19.25;;
70953;SDS011;58618;47.490;8.736;2024-01-11T11:07:10;58.83;;;20.27;;
70953;SDS011;58618;47.490;8.736;2024-01-11T11:09:59;66.57;;;21.10;;
70953;SDS011;58618;47.490;8.736;2024-01-11T11:12:50;60.20;;;19.30;;
70953;SDS011;58618;47.490;8.736;2024-01-11T11:15:41;58.78;;;18.77;;
70953;SDS011;58618;47.490;8.736;2024-01-11T11:18:32;57.95;;;18.98;;
70953;SDS011;58618;47.490;8.736;2024-01-11T11:21:23;63.78;;;21.08;;
70953;SDS011;58618;47.490;8.736;2024-01-11T11:24:13;59.90;;;20.38;;
70953;SDS011;58618;47.490;8.736;2024-01-11T11:27:03;54.60;;;19.17;;
70953;SDS011;58618;47.490;8.736;2024-01-11T11:29:53;55.22;;;18.02;;
70953;SDS011;58618;47.490;8.736;2024-01-11T11:32:42;47.72;;;16.27;;
70953;SDS011;58618;47.490;8.736;2024-01-11T11:35:30;48.50;;;17.10;;
70953;SDS011;58618;47.490;8.736;2024-01-11T11:38:18;47.28;;;16.33;;
70953;SDS011;58618;47.490;8.736;2024-01-11T11:41:09;48.03;;;16.33;;
70953;SDS011;58618;47.490;8.736;2024-01-11T11:44:00;48.45;;;17.10;;
70953;SDS011;58618;47.490;8.736;2024-01-11T11:46:47;51.03;;;16.17;;
70953;SDS011;58618;47.490;8.736;2024-01-11T11:52:44;49.35;;;15.85;;
70953;SDS011;58618;47.490;8.736;2024-01-11T11:55:32;46.10;;;18.17;;
70953;SDS011;58618;47.490;8.736;2024-01-11T11:58:23;45.25;;;15.75;;
70953;SDS011;58618;47.490;8.736;2024-01-11T12:01:11;50.25;;;17.35;;
70953;SDS011;58618;47.490;8.736;2024-01-11T12:04:00;47.97;;;16.55;;
70953;SDS011;58618;47.490;8.736;2024-01-11T12:06:48;50.78;;;16.50;;
70953;SDS011;58618;47.490;8.736;2024-01-11T12:09:35;46.53;;;16.23;;
70953;SDS011;58618;47.490;8.736;2024-01-11T12:12:23;49.42;;;15.77;;
70953;SDS011;58618;47.490;8.736;2024-01-11T12:15:12;43.15;;;14.52;;
70953;SDS011;58618;47.490;8.736;2024-01-11T12:17:59;44.88;;;15.32;;
70953;SDS011;58618;47.490;8.736;2024-01-11T12:20:47;46.92;;;17.92;;
70953;SDS011;58618;47.490;8.736;2024-01-11T12:23:34;47.17;;;16.40;;
70953;SDS011;58618;47.490;8.736;2024-01-11T12:26:24;43.15;;;14.93;;
70953;SDS011;58618;47.490;8.736;2024-01-11T12:29:11;49.08;;;16.02;;
70953;SDS011;58618;47.490;8.736;2024-01-11T12:32:01;43.47;;;15.63;;
70953;SDS011;58618;47.490;8.736;2024-01-11T12:34:49;45.58;;;15.68;;
70953;SDS011;58618;47.490;8.736;2024-01-11T12:37:37;45.17;;;15.97;;
70953;SDS011;58618;47.490;8.736;2024-01-11T12:40:25;53.47;;;15.30;;
70953;SDS011;58618;47.490;8.736;2024-01-11T12:43:13;48.22;;;16.63;;
70953;SDS011;58618;47.490;8.736;2024-01-11T12:46:02;48.90;;;16.20;;
70953;SDS011;58618;47.490;8.736;2024-01-11T12:48:51;42.53;;;14.98;;
70953;SDS011;58618;47.490;8.736;2024-01-11T12:51:38;50.20;;;16.23;;
70953;SDS011;58618;47.490;8.736;2024-01-11T12:54:26;46.40;;;15.75;;
70953;SDS011;58618;47.490;8.736;2024-01-11T12:57:17;48.95;;;16.90;;
70953;SDS011;58618;47.490;8.736;2024-01-11T13:00:11;49.58;;;17.45;;
70953;SDS011;58618;47.490;8.736;2024-01-11T13:03:02;49.75;;;17.48;;
70953;SDS011;58618;47.490;8.736;2024-01-11T13:05:52;53.03;;;17.37;;
70953;SDS011;58618;47.490;8.736;2024-01-11T13:08:39;50.75;;;18.08;;
70953;SDS011;58618;47.490;8.736;2024-01-11T13:11:27;48.30;;;15.45;;
70953;SDS011;58618;47.490;8.736;2024-01-11T13:14:15;42.72;;;15.25;;
70953;SDS011;58618;47.490;8.736;2024-01-11T13:17:04;57.55;;;16.00;;
70953;SDS011;58618;47.490;8.736;2024-01-11T13:19:53;50.17;;;15.87;;
70953;SDS011;58618;47.490;8.736;2024-01-11T13:22:42;48.35;;;17.13;;
70953;SDS011;58618;47.490;8.736;2024-01-11T13:25:29;50.47;;;16.80;;
70953;SDS011;58618;47.490;8.736;2024-01-11T13:28:17;52.67;;;16.15;;
70953;SDS011;58618;47.490;8.736;2024-01-11T13:31:04;50.83;;;17.38;;
70953;SDS011;58618;47.490;8.736;2024-01-11T13:33:54;55.87;;;18.40;;
70953;SDS011;58618;47.490;8.736;2024-01-11T13:36:42;51.45;;;15.13;;
70953;SDS011;58618;47.490;8.736;2024-01-11T13:39:31;49.00;;;15.88;;
70953;SDS011;58618;47.490;8.736;2024-01-11T13:42:18;54.47;;;18.02;;
70953;SDS011;58618;47.490;8.736;2024-01-11T13:45:06;49.60;;;15.65;;
70953;SDS011;58618;47.490;8.736;2024-01-11T13:47:54;42.20;;;14.40;;
70953;SDS011;58618;47.490;8.736;2024-01-11T13:50:42;49.75;;;16.60;;
70953;SDS011;58618;47.490;8.736;2024-01-11T13:53:29;48.63;;;15.18;;
70953;SDS011;58618;47.490;8.736;2024-01-11T13:56:18;46.53;;;14.90;;
70953;SDS011;58618;47.490;8.736;2024-01-11T13:59:05;43.33;;;14.00;;
70953;SDS011;58618;47.490;8.736;2024-01-11T14:01:53;39.47;;;13.17;;
70953;SDS011;58618;47.490;8.736;2024-01-11T14:04:40;43.13;;;13.35;;
70953;SDS011;58618;47.490;8.736;2024-01-11T14:07:27;45.35;;;14.80;;
70953;SDS011;58618;47.490;8.736;2024-01-11T14:10:16;43.13;;;14.52;;
70953;SDS011;58618;47.490;8.736;2024-01-11T14:13:05;46.63;;;14.70;;
70953;SDS011;58618;47.490;8.736;2024-01-11T14:15:53;42.00;;;14.70;;
70953;SDS011;58618;47.490;8.736;2024-01-11T14:18:40;48.88;;;16.02;;
70953;SDS011;58618;47.490;8.736;2024-01-11T14:21:28;43.42;;;13.57;;
70953;SDS011;58618;47.490;8.736;2024-01-11T14:24:15;45.50;;;14.73;;
70953;SDS011;58618;47.490;8.736;2024-01-11T14:27:02;46.08;;;14.40;;
70953;SDS011;58618;47.490;8.736;2024-01-11T14:29:52;41.03;;;13.47;;
70953;SDS011;58618;47.490;8.736;2024-01-11T14:32:39;41.92;;;12.93;;
70953;SDS011;58618;47.490;8.736;2024-01-11T14:35:27;43.92;;;13.85;;
70953;SDS011;58618;47.490;8.736;2024-01-11T14:38:15;33.22;;;12.45;;
70953;SDS011;58618;47.490;8.736;2024-01-11T14:41:02;39.17;;;14.23;;
70953;SDS011;58618;47.490;8.736;2024-01-11T14:43:50;39.13;;;14.37;;
70953;SDS011;58618;47.490;8.736;2024-01-11T14:46:41;37.83;;;11.57;;
70953;SDS011;58618;47.490;8.736;2024-01-11T14:49:29;34.17;;;10.93;;
70953;SDS011;58618;47.490;8.736;2024-01-11T14:52:16;30.35;;;10.70;;
70953;SDS011;58618;47.490;8.736;2024-01-11T14:55:04;29.25;;;11.20;;
70953;SDS011;58618;47.490;8.736;2024-01-11T14:57:53;36.10;;;12.43;;
70953;SDS011;58618;47.490;8.736;2024-01-11T15:00:41;30.15;;;11.38;;
70953;SDS011;58618;47.490;8.736;2024-01-11T15:03:30;32.03;;;12.05;;
70953;SDS011;58618;47.490;8.736;2024-01-11T15:06:17;35.72;;;9.88;;
70953;SDS011;58618;47.490;8.736;2024-01-11T15:09:05;30.15;;;10.57;;
70953;SDS011;58618;47.490;8.736;2024-01-11T15:11:58;27.80;;;10.70;;
70953;SDS011;58618;47.490;8.736;2024-01-11T15:14:46;28.80;;;11.02;;
70953;SDS011;58618;47.490;8.736;2024-01-11T15:17:36;28.80;;;10.18;;
70953;SDS011;58618;47.490;8.736;2024-01-11T15:20:25;30.73;;;10.43;;
70953;SDS011;58618;47.490;8.736;2024-01-11T15:23:12;32.53;;;9.90;;
70953;SDS011;58618;47.490;8.736;2024-01-11T15:25:59;25.33;;;8.93;;
70953;SDS011;58618;47.490;8.736;2024-01-11T15:28:47;26.40;;;9.15;;
70953;SDS011;58618;47.490;8.736;2024-01-11T15:31:34;28.90;;;10.70;;
70953;SDS011;58618;47.490;8.736;2024-01-11T15:34:24;28.15;;;9.77;;
70953;SDS011;58618;47.490;8.736;2024-01-11T15:37:13;26.35;;;10.07;;
70953;SDS011;58618;47.490;8.736;2024-01-11T15:40:02;38.00;;;11.40;;
70953;SDS011;58618;47.490;8.736;2024-01-11T15:42:50;33.05;;;11.13;;
70953;SDS011;58618;47.490;8.736;2024-01-11T15:45:38;29.00;;;9.70;;
70953;SDS011;58618;47.490;8.736;2024-01-11T15:48:25;22.65;;;8.52;;
70953;SDS011;58618;47.490;8.736;2024-01-11T15:51:13;25.83;;;10.07;;
70953;SDS011;58618;47.490;8.736;2024-01-11T15:54:02;22.40;;;8.57;;
70953;SDS011;58618;47.490;8.736;2024-01-11T15:56:50;24.05;;;9.13;;
70953;SDS011;58618;47.490;8.736;2024-01-11T15:59:40;22.38;;;8.50;;
70953;SDS011;58618;47.490;8.736;2024-01-11T16:02:28;25.33;;;8.85;;
70953;SDS011;58618;47.490;8.736;2024-01-11T16:05:15;24.05;;;9.40;;
70953;SDS011;58618;47.490;8.736;2024-01-11T16:08:02;26.47;;;9.50;;
70953;SDS011;58618;47.490;8.736;2024-01-11T16:10:52;25.08;;;9.50;;
70953;SDS011;58618;47.490;8.736;2024-01-11T16:13:39;24.48;;;8.75;;
70953;SDS011;58618;47.490;8.736;2024-01-11T16:16:31;20.55;;;8.13;;
70953;SDS011;58618;47.490;8.736;2024-01-11T16:19:20;22.88;;;8.88;;
70953;SDS011;58618;47.490;8.736;2024-01-11T16:22:08;21.13;;;8.67;;
70953;SDS011;58618;47.490;8.736;2024-01-11T16:24:55;26.52;;;9.18;;
70953;SDS011;58618;47.490;8.736;2024-01-11T16:27:44;24.73;;;9.90;;